Time;durP1;ratioP1;P1;durP2;ratioP2;P2;SDS_P1;SDS_P2;PMS_P1;PMS_P2;Temp;Humidity;BMP_temperature;BMP_pressure;BME280_temperature;BME280_humidity;BME280_pressure;Samples;Min_cycle;Max_cycle;Signal;HPM_P1;HPM_P2
2024/04/26 00:00:34;;;;;;;8.18;7.35;;;9.30;76.20;;;;;;5333309;26;111300;-54
2024/04/26 00:02:59;;;;;;;7.13;6.53;;;9.30;75.90;;;;;;5332895;26;110543;-55
2024/04/26 00:05:25;;;;;;;7.80;7.00;;;9.30;75.80;;;;;;5331862;26;112367;-54
2024/04/26 00:07:51;;;;;;;9.20;8.27;;;9.40;75.70;;;;;;5331779;26;112654;-54
2024/04/26 00:10:16;;;;;;;9.82;8.70;;;9.40;75.70;;;;;;5332826;26;110580;-54
2024/04/26 00:12:45;;;;;;;8.20;7.40;;;9.40;75.60;;;;;;5333083;26;110577;-55
2024/04/26 00:15:11;;;;;;;8.45;7.60;;;9.20;76.30;;;;;;5331843;26;112465;-54
2024/04/26 00:17:37;;;;;;;7.85;7.15;;;9.30;76.30;;;;;;5331808;26;114072;-54
2024/04/26 00:20:03;;;;;;;7.70;6.85;;;9.30;75.80;;;;;;5332342;26;110379;-54
2024/04/26 00:22:29;;;;;;;9.43;7.00;;;9.30;76.00;;;;;;5332675;26;110599;-54
2024/04/26 00:24:55;;;;;;;8.57;6.88;;;9.30;75.70;;;;;;5331795;26;111083;-55
2024/04/26 00:27:20;;;;;;;7.50;6.82;;;9.10;76.30;;;;;;5331573;26;111742;-54
2024/04/26 00:29:46;;;;;;;8.93;6.60;;;9.10;76.60;;;;;;5332515;26;110603;-54
2024/04/26 00:32:12;;;;;;;6.95;6.25;;;9.00;77.10;;;;;;5332908;26;113292;-55
2024/04/26 00:34:40;;;;;;;7.53;6.82;;;8.90;77.60;;;;;;5332031;26;111055;-54
2024/04/26 00:37:06;;;;;;;7.53;6.80;;;9.10;77.20;;;;;;5331496;26;111750;-54
2024/04/26 00:39:31;;;;;;;10.00;7.30;;;9.20;77.20;;;;;;5332781;26;110750;-54
2024/04/26 00:41:57;;;;;;;7.90;7.20;;;9.10;76.80;;;;;;5330919;26;111333;-54
2024/04/26 00:44:23;;;;;;;9.00;7.68;;;9.10;77.10;;;;;;5331270;26;112452;-54
2024/04/26 00:46:49;;;;;;;7.55;6.85;;;8.80;77.90;;;;;;5331203;26;110541;-54
2024/04/26 00:49:16;;;;;;;7.88;7.10;;;8.80;78.10;;;;;;5332126;26;110911;-54
2024/04/26 00:51:47;;;;;;;7.75;7.05;;;8.80;77.60;;;;;;5332658;26;110602;-54
2024/04/26 00:54:21;;;;;;;7.93;7.13;;;8.90;77.50;;;;;;5331134;26;112572;-54
2024/04/26 00:56:49;;;;;;;8.30;6.60;;;8.80;77.60;;;;;;5331271;26;111253;-54
2024/04/26 00:59:15;;;;;;;8.30;7.22;;;8.90;77.60;;;;;;5332018;26;110324;-54
2024/04/26 01:01:42;;;;;;;7.72;7.03;;;8.80;77.40;;;;;;5332591;26;110553;-54
2024/04/26 01:04:08;;;;;;;7.90;7.15;;;8.80;77.40;;;;;;5331521;26;111137;-54
2024/04/26 01:06:34;;;;;;;8.13;7.30;;;8.80;77.40;;;;;;5331486;26;112245;-55
2024/04/26 01:09:00;;;;;;;8.38;7.15;;;8.70;77.80;;;;;;5332290;26;110623;-55
2024/04/26 01:11:25;;;;;;;7.68;6.88;;;8.80;76.80;;;;;;5332130;26;110915;-54
2024/04/26 01:13:51;;;;;;;8.93;7.22;;;8.80;77.10;;;;;;5331057;26;112380;-54
2024/04/26 01:16:17;;;;;;;7.75;7.05;;;8.90;77.00;;;;;;5331317;26;111881;-54
2024/04/26 01:18:42;;;;;;;7.60;6.90;;;8.80;77.50;;;;;;5332012;26;110803;-54
2024/04/26 01:21:08;;;;;;;7.20;6.50;;;8.80;77.40;;;;;;5330735;26;110728;-54
2024/04/26 01:23:35;;;;;;;7.55;6.85;;;8.80;77.20;;;;;;5329154;26;112367;-54
2024/04/26 01:26:02;;;;;;;7.40;6.70;;;8.70;77.60;;;;;;5331212;26;110508;-54
2024/04/26 01:28:29;;;;;;;8.23;7.47;;;8.70;77.70;;;;;;5332096;26;111597;-54
2024/04/26 01:30:55;;;;;;;7.97;7.28;;;8.80;77.70;;;;;;5332081;26;110610;-54
2024/04/26 01:33:21;;;;;;;8.10;7.30;;;8.80;77.70;;;;;;5331694;26;111012;-54
2024/04/26 01:35:47;;;;;;;7.93;7.13;;;8.80;77.80;;;;;;5330472;26;110592;-55
2024/04/26 01:38:12;;;;;;;8.23;7.35;;;8.90;77.50;;;;;;5331981;26;110452;-54
2024/04/26 01:40:38;;;;;;;8.88;7.70;;;8.80;77.50;;;;;;5331914;26;110625;-54
2024/04/26 01:43:05;;;;;;;8.15;7.35;;;8.80;77.50;;;;;;5329357;26;112450;-54
2024/04/26 01:45:30;;;;;;;7.85;7.10;;;8.90;77.50;;;;;;5330883;26;111604;-54
2024/04/26 01:47:57;;;;;;;8.48;7.57;;;8.90;77.30;;;;;;5331623;26;110437;-54
2024/04/26 01:50:22;;;;;;;7.50;6.80;;;9.00;76.90;;;;;;5331913;26;110622;-54
2024/04/26 01:52:49;;;;;;;8.23;7.43;;;9.00;76.80;;;;;;5330842;26;111083;-54
2024/04/26 01:55:15;;;;;;;7.35;6.63;;;8.90;76.90;;;;;;5328890;26;111706;-54
2024/04/26 01:57:41;;;;;;;7.68;6.97;;;8.80;77.40;;;;;;5331558;26;110669;-54
2024/04/26 02:00:09;;;;;;;7.82;7.13;;;8.70;77.80;;;;;;5331794;26;110752;-54
2024/04/26 02:02:35;;;;;;;7.97;7.28;;;8.70;77.50;;;;;;5330698;26;114143;-54
2024/04/26 02:05:01;;;;;;;7.72;7.03;;;8.60;77.40;;;;;;5330640;26;110763;-54
2024/04/26 02:07:27;;;;;;;7.13;6.53;;;8.60;77.40;;;;;;5330603;26;110455;-57
2024/04/26 02:09:53;;;;;;;7.28;6.57;;;8.50;77.50;;;;;;5331510;26;110574;-54
2024/04/26 02:12:18;;;;;;;7.25;6.65;;;8.60;77.00;;;;;;5330544;26;112445;-54
2024/04/26 02:14:44;;;;;;;7.50;6.70;;;8.50;77.60;;;;;;5330433;26;110949;-54
2024/04/26 02:17:12;;;;;;;7.68;6.97;;;8.60;77.50;;;;;;5331682;26;111165;-54
2024/04/26 02:19:38;;;;;;;7.32;6.63;;;8.40;77.30;;;;;;5331771;26;110825;-54
2024/04/26 02:22:04;;;;;;;8.23;6.60;;;8.40;77.80;;;;;;5330396;26;111161;-54
2024/04/26 02:24:30;;;;;;;9.10;7.18;;;8.40;78.00;;;;;;5330104;26;111593;-54
2024/04/26 02:26:56;;;;;;;8.48;7.20;;;8.40;77.80;;;;;;5331342;26;110831;-54
2024/04/26 02:29:22;;;;;;;7.60;6.90;;;8.40;78.00;;;;;;5331422;26;110648;-54
2024/04/26 02:31:47;;;;;;;8.70;7.35;;;8.50;77.60;;;;;;5330171;26;112451;-54
2024/04/26 02:34:15;;;;;;;7.82;7.10;;;8.40;77.60;;;;;;5330879;26;112193;-54
2024/04/26 02:36:41;;;;;;;9.95;7.88;;;8.40;78.00;;;;;;5330894;26;110398;-54
2024/04/26 02:39:07;;;;;;;8.07;7.25;;;8.30;77.90;;;;;;5331456;26;110670;-54
2024/04/26 02:41:33;;;;;;;7.18;6.47;;;8.40;78.30;;;;;;5328650;26;111090;-54
2024/04/26 02:44:00;;;;;;;9.43;7.30;;;8.50;78.00;;;;;;5328104;26;112075;-54
2024/04/26 02:46:28;;;;;;;7.50;6.80;;;8.60;77.40;;;;;;5331088;26;110931;-54
2024/04/26 02:48:54;;;;;;;7.53;6.82;;;8.60;77.40;;;;;;5330733;26;111098;-54
2024/04/26 02:51:19;;;;;;;6.80;6.15;;;8.60;77.50;;;;;;5329851;26;111028;-54
2024/04/26 02:53:45;;;;;;;6.93;6.32;;;8.60;77.30;;;;;;5329740;26;110443;-54
2024/04/26 02:56:11;;;;;;;11.50;7.88;;;8.60;77.20;;;;;;5330513;26;110361;-54
2024/04/26 02:58:39;;;;;;;8.35;7.43;;;8.70;77.00;;;;;;5330991;26;110899;-54
2024/04/26 03:01:05;;;;;;;7.68;6.88;;;8.70;76.80;;;;;;5329544;26;112352;-54
2024/04/26 03:03:31;;;;;;;7.32;6.63;;;8.70;77.10;;;;;;5329754;26;110840;-54
2024/04/26 03:05:59;;;;;;;7.38;6.68;;;8.70;77.00;;;;;;5330561;26;113047;-54
2024/04/26 03:08:25;;;;;;;8.20;6.60;;;8.80;76.70;;;;;;5330754;26;110627;-54
2024/04/26 03:10:51;;;;;;;6.68;6.07;;;8.80;76.60;;;;;;5329341;26;112567;-54
2024/04/26 03:13:16;;;;;;;7.68;6.43;;;8.80;76.40;;;;;;5329193;26;110669;-54
2024/04/26 03:15:42;;;;;;;7.40;6.32;;;8.80;76.10;;;;;;5330360;26;111929;-54
2024/04/26 03:18:09;;;;;;;6.40;5.80;;;8.90;76.10;;;;;;5330135;26;110513;-54
2024/04/26 03:20:35;;;;;;;7.72;6.93;;;8.90;75.60;;;;;;5330664;26;111073;-54
2024/04/26 03:23:00;;;;;;;6.75;6.05;;;8.90;75.60;;;;;;5332130;26;110499;-54
2024/04/26 03:25:26;;;;;;;6.25;5.65;;;8.90;75.50;;;;;;5333372;26;110746;-54
2024/04/26 03:27:52;;;;;;;6.10;5.53;;;8.90;75.40;;;;;;5333181;26;110501;-54
2024/04/26 03:30:17;;;;;;;5.72;5.22;;;8.90;75.50;;;;;;5332483;26;110959;-54
2024/04/26 03:32:45;;;;;;;7.50;5.72;;;8.90;75.00;;;;;;5332370;26;111769;-54
2024/04/26 03:35:10;;;;;;;6.82;6.13;;;8.90;74.70;;;;;;5333472;26;110427;-54
2024/04/26 03:37:37;;;;;;;6.57;5.97;;;8.90;75.10;;;;;;5333033;26;110755;-54
2024/04/26 03:40:03;;;;;;;6.13;5.00;;;8.90;75.20;;;;;;5332038;26;112851;-54
2024/04/26 03:42:29;;;;;;;5.88;5.30;;;9.00;74.70;;;;;;5301176;26;111958;-54
2024/04/26 03:44:54;;;;;;;5.57;4.97;;;8.90;74.30;;;;;;5332819;26;110729;-54
2024/04/26 03:47:20;;;;;;;5.22;4.70;;;8.90;74.60;;;;;;5333553;26;110683;-54
2024/04/26 03:49:46;;;;;;;5.35;4.85;;;8.90;74.40;;;;;;5332083;26;111225;-54
2024/04/26 03:52:11;;;;;;;5.28;4.65;;;9.00;74.00;;;;;;5331672;26;110705;-54
2024/04/26 03:54:37;;;;;;;5.03;4.63;;;9.10;73.90;;;;;;5333210;26;110637;-54
2024/04/26 03:57:03;;;;;;;6.22;4.90;;;9.00;73.90;;;;;;5333152;26;110590;-55
2024/04/26 03:59:28;;;;;;;6.35;4.30;;;8.90;74.10;;;;;;5331823;26;112582;-54
2024/04/26 04:01:54;;;;;;;4.78;4.28;;;9.00;74.30;;;;;;5331788;26;112251;-54
2024/04/26 04:04:20;;;;;;;5.60;5.10;;;8.90;74.00;;;;;;5332653;26;110627;-54
2024/04/26 04:06:46;;;;;;;5.22;4.65;;;8.90;74.50;;;;;;5333070;26;110544;-54
2024/04/26 04:09:11;;;;;;;5.30;4.80;;;8.90;74.60;;;;;;5331646;26;111244;-54
2024/04/26 04:11:37;;;;;;;5.10;4.70;;;8.90;74.50;;;;;;5331879;26;111003;-54
2024/04/26 04:14:03;;;;;;;7.55;6.20;;;9.00;74.50;;;;;;5332702;26;110385;-54
2024/04/26 04:16:28;;;;;;;5.38;4.90;;;9.00;74.30;;;;;;5332779;26;110688;-54
2024/04/26 04:18:54;;;;;;;4.93;4.53;;;9.00;73.90;;;;;;5331950;26;111100;-54
2024/04/26 04:21:20;;;;;;;4.15;3.85;;;9.00;73.70;;;;;;5331530;26;110491;-54
2024/04/26 04:23:45;;;;;;;4.43;4.03;;;8.90;73.40;;;;;;5332659;26;110694;-54
2024/04/26 04:26:11;;;;;;;4.78;4.38;;;8.90;73.90;;;;;;5332354;26;110513;-54
2024/04/26 04:28:42;;;;;;;4.85;4.22;;;9.10;73.60;;;;;;5331598;26;111342;-54
2024/04/26 04:31:09;;;;;;;6.80;4.72;;;9.10;73.40;;;;;;5329252;26;112726;-54
2024/04/26 04:33:35;;;;;;;7.07;4.25;;;9.10;73.40;;;;;;5332835;26;110505;-54
2024/04/26 04:36:01;;;;;;;4.93;4.43;;;9.30;72.90;;;;;;5332671;26;110565;-54
2024/04/26 04:38:27;;;;;;;4.80;4.32;;;9.20;72.60;;;;;;5331331;26;112447;-54
2024/04/26 04:40:52;;;;;;;5.32;4.22;;;9.10;72.80;;;;;;5331618;26;110367;-54
2024/04/26 04:43:18;;;;;;;6.68;4.57;;;9.10;73.10;;;;;;5332394;26;110729;-54
2024/04/26 04:45:43;;;;;;;4.80;4.40;;;9.20;72.70;;;;;;5331101;26;110628;-54
2024/04/26 04:48:09;;;;;;;4.70;4.30;;;9.30;72.80;;;;;;5331417;26;112382;-54
2024/04/26 04:50:35;;;;;;;6.20;4.28;;;9.30;72.60;;;;;;5330822;26;110657;-54
2024/04/26 04:53:00;;;;;;;5.07;4.50;;;9.30;72.50;;;;;;5332250;26;110799;-54
2024/04/26 04:55:26;;;;;;;4.90;4.50;;;9.30;72.60;;;;;;5332571;26;110553;-54
2024/04/26 04:57:52;;;;;;;6.03;4.53;;;9.30;72.80;;;;;;5331139;26;111071;-54
2024/04/26 05:00:18;;;;;;;4.88;4.30;;;9.30;72.80;;;;;;5331441;26;110438;-54
2024/04/26 05:02:43;;;;;;;5.80;4.50;;;9.40;72.80;;;;;;5332064;26;110775;-54
2024/04/26 05:05:09;;;;;;;6.50;4.60;;;9.40;72.70;;;;;;5332532;26;110628;-54
2024/04/26 05:07:35;;;;;;;6.07;4.50;;;9.40;72.50;;;;;;5331270;26;112620;-56
2024/04/26 05:10:00;;;;;;;4.32;3.92;;;9.40;72.30;;;;;;5331379;26;110941;-54
2024/04/26 05:12:26;;;;;;;3.80;3.50;;;9.60;71.30;;;;;;5332230;26;110620;-54
2024/04/26 05:14:52;;;;;;;4.65;4.25;;;9.60;70.90;;;;;;5331967;26;110587;-54
2024/04/26 05:17:17;;;;;;;5.45;4.30;;;9.60;71.00;;;;;;5331183;26;111427;-54
2024/04/26 05:19:44;;;;;;;4.78;4.38;;;9.60;71.10;;;;;;5331132;26;112735;-54
2024/04/26 05:22:11;;;;;;;4.90;4.50;;;9.60;71.20;;;;;;5315280;26;113389;-54
2024/04/26 05:24:37;;;;;;;5.50;4.30;;;9.60;71.20;;;;;;5324756;26;110498;-54
2024/04/26 05:27:08;;;;;;;4.38;3.97;;;9.60;71.40;;;;;;5331206;26;112500;-54
2024/04/26 05:29:34;;;;;;;4.70;4.00;;;9.60;71.50;;;;;;5331035;26;115441;-54
2024/04/26 05:32:00;;;;;;;4.50;4.10;;;9.80;70.90;;;;;;5332469;26;110827;-54
2024/04/26 05:34:25;;;;;;;4.57;4.18;;;9.70;70.60;;;;;;5332757;26;110578;-54
2024/04/26 05:36:51;;;;;;;5.65;4.20;;;9.80;70.40;;;;;;5328958;26;112246;-54
2024/04/26 05:39:17;;;;;;;4.85;4.45;;;9.90;70.60;;;;;;5330831;26;110769;-54
2024/04/26 05:41:44;;;;;;;9.27;4.82;;;9.90;70.40;;;;;;5332061;26;110582;-54
2024/04/26 05:44:10;;;;;;;5.07;4.35;;;10.00;70.20;;;;;;5330563;26;110763;-54
2024/04/26 05:46:36;;;;;;;5.13;4.63;;;10.20;70.20;;;;;;5330857;26;112205;-54
2024/04/26 05:49:01;;;;;;;6.75;4.93;;;10.20;69.90;;;;;;5330891;26;110359;-54
2024/04/26 05:51:27;;;;;;;7.60;4.90;;;10.30;70.20;;;;;;5331653;26;110525;-54
2024/04/26 05:53:54;;;;;;;9.88;5.85;;;10.30;69.90;;;;;;5331798;26;110742;-54
2024/04/26 05:56:21;;;;;;;4.80;4.40;;;10.30;69.80;;;;;;5331237;26;111562;-55
2024/04/26 05:58:46;;;;;;;5.50;4.20;;;10.30;69.50;;;;;;5329191;26;113541;-55
2024/04/26 06:01:12;;;;;;;3.95;3.65;;;10.40;68.40;;;;;;5331634;26;110590;-54
2024/04/26 06:03:39;;;;;;;5.25;3.97;;;10.60;67.90;;;;;;5331694;26;110639;-54
2024/04/26 06:06:07;;;;;;;4.78;4.00;;;10.70;68.10;;;;;;5330501;26;111091;-54
2024/04/26 06:08:35;;;;;;;3.60;3.30;;;10.70;67.70;;;;;;5330771;26;110672;-54
2024/04/26 06:11:01;;;;;;;3.60;3.30;;;10.80;67.10;;;;;;5331340;26;110642;-54
2024/04/26 06:13:27;;;;;;;3.97;3.45;;;10.90;66.80;;;;;;5331812;26;110531;-54
2024/04/26 06:15:53;;;;;;;4.22;3.30;;;10.80;66.30;;;;;;5330390;26;111316;-54
2024/04/26 06:18:19;;;;;;;3.60;3.30;;;11.00;65.90;;;;;;5330437;26;110399;-54
2024/04/26 06:20:44;;;;;;;3.83;3.38;;;11.10;65.60;;;;;;5331865;26;111176;-54
2024/04/26 06:23:10;;;;;;;5.38;4.13;;;11.10;65.90;;;;;;5331330;26;110518;-54
2024/04/26 06:25:36;;;;;;;4.00;3.65;;;11.10;65.70;;;;;;5330485;26;111077;-54
2024/04/26 06:28:02;;;;;;;5.68;3.90;;;11.30;65.70;;;;;;5330031;26;111641;-54
2024/04/26 06:30:27;;;;;;;4.13;3.78;;;11.40;65.50;;;;;;5331225;26;110805;-54
2024/04/26 06:32:53;;;;;;;3.97;3.40;;;11.30;65.80;;;;;;5331508;26;110577;-54
2024/04/26 06:35:18;;;;;;;3.83;3.22;;;11.40;64.80;;;;;;5330560;26;112728;-54
2024/04/26 06:37:44;;;;;;;3.13;2.83;;;11.70;64.00;;;;;;5330187;26;110795;-54
2024/04/26 06:40:10;;;;;;;3.95;3.50;;;11.70;63.80;;;;;;5330927;26;110918;-54
2024/04/26 06:42:36;;;;;;;4.18;3.30;;;11.80;63.30;;;;;;5331193;26;110638;-53
2024/04/26 06:45:01;;;;;;;6.15;3.33;;;11.90;63.70;;;;;;5329989;26;111088;-54
2024/04/26 06:47:27;;;;;;;3.97;3.15;;;12.10;63.50;;;;;;5330059;26;111480;-54
2024/04/26 06:49:53;;;;;;;3.83;3.50;;;12.00;63.50;;;;;;5330900;26;110666;-55
2024/04/26 06:52:18;;;;;;;4.07;3.38;;;12.10;63.10;;;;;;5330500;26;110718;-54
2024/04/26 06:54:44;;;;;;;3.63;3.28;;;12.20;62.40;;;;;;5331135;26;112330;-54
2024/04/26 06:57:10;;;;;;;4.47;3.20;;;12.30;62.20;;;;;;5332575;26;111632;-54
2024/04/26 06:59:35;;;;;;;4.95;3.50;;;12.40;62.90;;;;;;5333549;26;110567;-54
2024/04/26 07:02:02;;;;;;;3.50;3.20;;;12.40;62.10;;;;;;5333667;26;110725;-56
2024/04/26 07:04:28;;;;;;;5.90;3.35;;;12.60;62.00;;;;;;5332145;26;112814;-55
2024/04/26 07:06:54;;;;;;;4.47;3.30;;;12.70;61.90;;;;;;5332534;26;111600;-55
2024/04/26 07:09:20;;;;;;;3.95;3.60;;;12.80;61.70;;;;;;5333420;26;110955;-54
2024/04/26 07:11:46;;;;;;;3.50;3.20;;;12.80;60.30;;;;;;5333715;26;110979;-54
2024/04/26 07:14:12;;;;;;;5.13;3.10;;;13.00;60.00;;;;;;5332237;26;111140;-54
2024/04/26 07:16:38;;;;;;;3.15;2.85;;;13.10;60.20;;;;;;5332109;26;110596;-55
2024/04/26 07:19:04;;;;;;;3.22;2.92;;;13.20;59.50;;;;;;5333360;26;111006;-54
2024/04/26 07:21:30;;;;;;;5.82;3.10;;;13.10;60.10;;;;;;5333451;26;110784;-54
2024/04/26 07:23:56;;;;;;;4.68;3.03;;;13.10;60.10;;;;;;5332227;26;111054;-55
2024/04/26 07:26:22;;;;;;;3.60;3.10;;;13.00;60.40;;;;;;5332251;26;111586;-54
2024/04/26 07:28:51;;;;;;;3.38;2.70;;;12.80;61.40;;;;;;5332976;26;110623;-54
2024/04/26 07:31:17;;;;;;;3.50;3.15;;;12.80;61.50;;;;;;5331469;26;110653;-54
2024/04/26 07:33:43;;;;;;;3.45;3.15;;;12.80;61.90;;;;;;5332836;26;111254;-54
2024/04/26 07:36:09;;;;;;;4.18;3.00;;;12.80;61.50;;;;;;5332072;26;110603;-54
2024/04/26 07:38:35;;;;;;;4.57;2.90;;;12.80;61.90;;;;;;5333010;26;110477;-54
2024/04/26 07:41:01;;;;;;;3.00;2.70;;;12.80;61.50;;;;;;5333269;26;110564;-54
2024/04/26 07:43:29;;;;;;;2.63;2.42;;;12.90;61.30;;;;;;5331809;26;112956;-55
2024/04/26 07:45:55;;;;;;;3.03;2.42;;;13.20;60.30;;;;;;5332252;26;111795;-54
2024/04/26 07:48:21;;;;;;;3.60;2.38;;;13.40;60.00;;;;;;5332933;26;110893;-54
2024/04/26 07:50:46;;;;;;;2.50;2.30;;;13.70;58.80;;;;;;5333103;26;110996;-54
2024/04/26 07:53:12;;;;;;;2.50;2.30;;;13.90;57.80;;;;;;5332104;26;112576;-54
2024/04/26 07:55:41;;;;;;;2.53;1.90;;;14.40;56.40;;;;;;5332014;26;111848;-54
2024/04/26 07:58:07;;;;;;;1.98;1.88;;;14.80;55.20;;;;;;5333325;26;110903;-55
2024/04/26 08:00:33;;;;;;;2.22;1.98;;;14.70;55.80;;;;;;5333212;26;110516;-54
2024/04/26 08:03:00;;;;;;;3.95;2.17;;;15.10;54.50;;;;;;5331739;26;111301;-54
2024/04/26 08:05:25;;;;;;;2.55;1.65;;;15.70;53.40;;;;;;5330951;26;111710;-54
2024/04/26 08:07:51;;;;;;;2.80;2.08;;;15.90;52.20;;;;;;5332472;26;110688;-54
2024/04/26 08:10:17;;;;;;;2.55;1.90;;;15.70;52.20;;;;;;5333135;26;110523;-55
2024/04/26 08:12:43;;;;;;;2.22;2.03;;;15.80;52.80;;;;;;5331621;26;111260;-55
2024/04/26 08:15:09;;;;;;;2.53;2.13;;;15.50;52.70;;;;;;5331813;26;110631;-55
2024/04/26 08:17:36;;;;;;;2.33;2.03;;;15.50;53.30;;;;;;5332708;26;110559;-54
2024/04/26 08:20:02;;;;;;;2.22;2.03;;;15.80;52.70;;;;;;5333056;26;110548;-54
2024/04/26 08:22:28;;;;;;;3.53;2.90;;;15.70;52.00;;;;;;5331972;26;111013;-54
2024/04/26 08:24:54;;;;;;;6.13;4.50;;;15.70;52.50;;;;;;5331472;26;110646;-55
2024/04/26 08:27:19;;;;;;;4.55;4.10;;;15.70;52.50;;;;;;5332630;26;110568;-55
2024/04/26 08:29:46;;;;;;;2.97;2.60;;;15.60;52.20;;;;;;5332333;26;110742;-55
2024/04/26 08:32:15;;;;;;;2.35;2.25;;;15.80;52.90;;;;;;5331624;26;111069;-55
2024/04/26 08:34:41;;;;;;;2.72;2.50;;;16.20;51.90;;;;;;5332099;26;110863;-55
2024/04/26 08:37:07;;;;;;;3.53;2.47;;;16.30;50.20;;;;;;5332475;26;111599;-54
2024/04/26 08:39:33;;;;;;;2.38;2.10;;;16.10;51.50;;;;;;5332644;26;110785;-55
2024/04/26 08:42:01;;;;;;;2.45;2.25;;;16.10;50.80;;;;;;5331346;26;111024;-55
2024/04/26 08:44:27;;;;;;;2.90;2.42;;;16.10;51.30;;;;;;5331542;26;110909;-55
2024/04/26 08:46:55;;;;;;;2.63;2.42;;;16.30;51.30;;;;;;5332483;26;110869;-55
2024/04/26 08:49:22;;;;;;;2.90;2.70;;;16.40;51.40;;;;;;5332635;26;110501;-55
2024/04/26 08:51:51;;;;;;;2.70;2.50;;;16.30;51.60;;;;;;5331269;26;112412;-55
2024/04/26 08:54:18;;;;;;;4.10;2.47;;;16.00;51.00;;;;;;5330960;26;110708;-54
2024/04/26 08:56:45;;;;;;;2.70;2.50;;;16.10;51.40;;;;;;5332215;26;110766;-55
2024/04/26 08:59:13;;;;;;;3.05;2.38;;;16.60;50.40;;;;;;5332339;26;110688;-55
2024/04/26 09:01:42;;;;;;;2.42;2.20;;;16.80;49.20;;;;;;5331417;26;112467;-55
2024/04/26 09:04:07;;;;;;;3.45;2.20;;;16.90;49.20;;;;;;5331090;26;111623;-54
2024/04/26 09:06:34;;;;;;;2.60;2.40;;;17.20;49.10;;;;;;5332310;26;110848;-55
2024/04/26 09:09:00;;;;;;;2.60;2.40;;;17.30;48.30;;;;;;5332488;26;113012;-55
2024/04/26 09:11:27;;;;;;;1.67;1.58;;;17.70;47.70;;;;;;5331549;26;112554;-55
2024/04/26 09:13:53;;;;;;;2.20;2.00;;;18.10;48.30;;;;;;5331426;26;110986;-55
2024/04/26 09:16:20;;;;;;;2.10;1.90;;;18.30;47.40;;;;;;5331863;26;111740;-55
2024/04/26 09:18:45;;;;;;;1.92;1.83;;;17.90;46.00;;;;;;5332031;26;110817;-54
2024/04/26 09:21:11;;;;;;;2.38;2.22;;;17.30;47.20;;;;;;5330948;26;111055;-55
2024/04/26 09:23:37;;;;;;;2.70;2.50;;;16.90;48.40;;;;;;5331018;26;111554;-54
2024/04/26 09:26:05;;;;;;;2.65;2.45;;;16.40;49.70;;;;;;5332127;26;110448;-55
2024/04/26 09:28:31;;;;;;;3.05;2.45;;;16.40;50.40;;;;;;5331928;26;110679;-55
2024/04/26 09:30:57;;;;;;;2.38;2.17;;;16.40;50.20;;;;;;5331046;26;112486;-55
2024/04/26 09:33:29;;;;;;;2.70;2.50;;;16.00;50.70;;;;;;5330791;26;110878;-55
2024/04/26 09:35:56;;;;;;;2.05;1.95;;;15.90;51.80;;;;;;5332258;26;110731;-55
2024/04/26 09:38:23;;;;;;;2.47;2.28;;;15.90;51.50;;;;;;5332058;26;110521;-55
2024/04/26 09:40:50;;;;;;;2.25;2.10;;;15.70;51.40;;;;;;5330942;26;111025;-54
2024/04/26 09:43:18;;;;;;;2.78;2.50;;;15.40;51.90;;;;;;5330443;26;110489;-54
2024/04/26 09:45:44;;;;;;;2.30;2.13;;;15.50;52.70;;;;;;5331886;26;110446;-54
2024/04/26 09:48:11;;;;;;;4.10;2.60;;;15.40;53.20;;;;;;5332255;26;110859;-55
2024/04/26 09:50:38;;;;;;;2.70;2.10;;;15.90;52.80;;;;;;5330386;26;112421;-55
2024/04/26 09:53:05;;;;;;;2.08;1.90;;;16.40;51.20;;;;;;5330889;26;110453;-54
2024/04/26 09:55:32;;;;;;;2.10;2.00;;;16.80;50.50;;;;;;5331610;26;110819;-55
2024/04/26 09:57:58;;;;;;;2.03;1.92;;;17.40;50.60;;;;;;5330274;26;110692;-54
2024/04/26 10:00:24;;;;;;;2.47;1.67;;;17.90;49.00;;;;;;5330960;26;112336;-54
2024/04/26 10:03:00;;;;;;;2.05;1.80;;;18.20;47.70;;;;;;5330795;26;110931;-55
2024/04/26 10:05:26;;;;;;;2.10;1.90;;;18.40;47.10;;;;;;5331805;26;110864;-55
2024/04/26 10:08:06;;;;;;;1.70;1.60;;;18.60;47.50;;;;;;5331372;26;110757;-55
2024/04/26 10:10:33;;;;;;;2.58;1.65;;;18.80;46.70;;;;;;5330764;26;113143;-55
2024/04/26 10:13:16;;;;;;;2.22;2.03;;;19.20;45.90;;;;;;5330306;26;112512;-54
2024/04/26 10:15:54;;;;;;;3.45;1.80;;;18.40;46.40;;;;;;5331677;26;110538;-55
2024/04/26 10:18:40;;;;;;;2.08;1.88;;;18.10;47.80;;;;;;5307489;26;111190;-55
2024/04/26 10:21:06;;;;;;;2.17;1.30;;;18.60;46.60;;;;;;5330195;26;114871;-55
2024/04/26 10:23:35;;;;;;;1.95;1.63;;;19.40;45.80;;;;;;5330822;26;110838;-54
2024/04/26 10:26:10;;;;;;;2.28;1.60;;;19.70;45.00;;;;;;5331422;26;110646;-55
2024/04/26 10:28:36;;;;;;;2.10;2.00;;;19.00;45.90;;;;;;5330554;26;110686;-55
2024/04/26 10:31:02;;;;;;;2.30;2.10;;;19.80;44.40;;;;;;5330387;26;112585;-56
2024/04/26 10:33:34;;;;;;;2.47;2.03;;;19.70;43.60;;;;;;5330149;26;110477;-55
2024/04/26 10:36:07;;;;;;;2.50;2.30;;;19.50;45.40;;;;;;5331247;26;110455;-55
2024/04/26 10:38:41;;;;;;;2.05;1.77;;;20.30;44.20;;;;;;5323514;26;110689;-55
2024/04/26 10:41:06;;;;;;;2.10;1.90;;;20.50;43.00;;;;;;5315391;26;112271;-54
2024/04/26 10:43:32;;;;;;;2.70;2.50;;;20.20;42.10;;;;;;5329967;26;110747;-55
2024/04/26 10:46:00;;;;;;;2.38;2.17;;;20.70;42.40;;;;;;5330944;26;110388;-55
2024/04/26 10:48:33;;;;;;;2.63;2.33;;;21.00;40.40;;;;;;5331026;26;110647;-55
2024/04/26 10:51:09;;;;;;;3.00;2.40;;;21.00;41.10;;;;;;5329902;26;111016;-55
2024/04/26 10:53:35;;;;;;;2.20;2.00;;;20.60;41.40;;;;;;5329918;26;110309;-55
2024/04/26 10:56:01;;;;;;;3.38;2.03;;;20.90;42.50;;;;;;5330483;26;110415;-55
2024/04/26 10:58:36;;;;;;;2.30;2.15;;;21.40;40.70;;;;;;5330683;26;110678;-55
2024/04/26 11:01:02;;;;;;;2.22;2.00;;;21.40;39.50;;;;;;5329749;26;111053;-55
2024/04/26 11:03:28;;;;;;;2.00;1.80;;;20.90;40.60;;;;;;5329625;26;111579;-55
2024/04/26 11:05:54;;;;;;;2.00;1.80;;;20.40;42.20;;;;;;5330367;26;110406;-55
2024/04/26 11:08:26;;;;;;;1.58;1.42;;;20.10;41.30;;;;;;5331019;26;112596;-55
2024/04/26 11:11:05;;;;;;;1.80;1.70;;;20.00;41.10;;;;;;5329321;26;112521;-55
2024/04/26 11:13:31;;;;;;;1.70;1.60;;;19.30;42.00;;;;;;5329604;26;111908;-55
2024/04/26 11:15:56;;;;;;;2.38;2.20;;;20.00;40.20;;;;;;5330172;26;110489;-55
2024/04/26 11:18:23;;;;;;;3.08;1.80;;;20.10;41.10;;;;;;5330651;26;111038;-55
2024/04/26 11:20:49;;;;;;;5.50;1.90;;;20.80;39.70;;;;;;5329571;26;112673;-55
2024/04/26 11:23:15;;;;;;;2.40;1.95;;;20.70;39.50;;;;;;5327074;26;113369;-55
2024/04/26 11:25:40;;;;;;;1.85;1.75;;;21.80;38.70;;;;;;5330362;26;110424;-55
2024/04/26 11:28:06;;;;;;;1.95;1.58;;;22.10;35.50;;;;;;5330003;26;110555;-55
2024/04/26 11:30:31;;;;;;;2.15;1.90;;;21.40;37.10;;;;;;5329192;26;111068;-55
2024/04/26 11:32:58;;;;;;;1.73;1.63;;;22.30;36.90;;;;;;5328980;26;110642;-55
2024/04/26 11:35:23;;;;;;;1.80;1.70;;;22.40;35.70;;;;;;5330553;26;110730;-55
2024/04/26 11:37:49;;;;;;;2.00;1.80;;;22.10;37.10;;;;;;5330215;26;110640;-55
2024/04/26 11:40:15;;;;;;;2.42;2.08;;;21.70;36.10;;;;;;5328866;26;113096;-55
2024/04/26 11:42:40;;;;;;;3.80;1.80;;;21.50;36.20;;;;;;5331859;26;110702;-55
2024/04/26 11:45:06;;;;;;;2.67;2.17;;;20.90;39.40;;;;;;5332913;26;110689;-55
2024/04/26 11:47:32;;;;;;;2.17;2.00;;;19.90;39.90;;;;;;5333167;26;110623;-55
2024/04/26 11:49:58;;;;;;;2.42;2.00;;;20.00;40.60;;;;;;5331945;26;111717;-55
2024/04/26 11:52:24;;;;;;;2.28;2.08;;;21.40;40.40;;;;;;5331924;26;111091;-55
2024/04/26 11:54:49;;;;;;;2.45;1.95;;;21.00;39.70;;;;;;5333164;26;110517;-55
2024/04/26 11:57:15;;;;;;;1.70;1.60;;;20.90;40.00;;;;;;5332966;26;110578;-55
2024/04/26 11:59:42;;;;;;;2.22;2.03;;;22.00;39.00;;;;;;5332005;26;111181;-55
2024/04/26 12:02:10;;;;;;;2.30;2.00;;;22.40;38.60;;;;;;5331951;26;111955;-55
2024/04/26 12:04:36;;;;;;;1.67;1.58;;;21.30;39.20;;;;;;5332937;26;111109;-55
2024/04/26 12:07:01;;;;;;;2.13;1.67;;;20.60;39.40;;;;;;5333295;26;110540;-55
2024/04/26 12:09:27;;;;;;;2.45;2.25;;;20.40;39.40;;;;;;5331660;26;112304;-56
2024/04/26 12:11:53;;;;;;;2.38;2.17;;;20.30;41.10;;;;;;5331615;26;111577;-54
2024/04/26 12:14:18;;;;;;;2.20;2.00;;;20.40;40.40;;;;;;5332526;26;110514;-54
2024/04/26 12:16:47;;;;;;;2.45;1.80;;;20.00;41.20;;;;;;5332991;26;111001;-56
2024/04/26 12:19:12;;;;;;;2.17;1.98;;;20.90;41.50;;;;;;5331826;26;111638;-56
2024/04/26 12:21:38;;;;;;;2.90;1.95;;;20.50;41.30;;;;;;5331590;26;110769;-56
2024/04/26 12:24:04;;;;;;;1.90;1.80;;;20.40;42.10;;;;;;5332670;26;110774;-56
2024/04/26 12:26:29;;;;;;;2.90;2.50;;;20.90;42.10;;;;;;5332845;26;110624;-56
2024/04/26 12:28:55;;;;;;;3.08;2.88;;;19.60;43.30;;;;;;5331514;26;112561;-56
2024/04/26 12:31:21;;;;;;;2.22;2.03;;;19.70;43.30;;;;;;5331590;26;110861;-56
2024/04/26 12:33:48;;;;;;;1.88;1.77;;;19.50;43.10;;;;;;5333096;26;110831;-55
2024/04/26 12:36:14;;;;;;;1.50;1.40;;;19.40;43.50;;;;;;5332558;26;110616;-56